Adelma Beach, Washington
Current Conditions -  °F | °C
As of 1:56 AM on Friday 31 Oct 2014 (Local Time) from KNUW Reporting Station
Light Rain Light Rain  
Wind Chill: 12°   Ceiling: 4200
Heat Index: 12°   Visibility: 10mi
Dew Point: 11°   Wind: 7mph
Humidity: 90%   Direction: 90°E
Pressure: 29.77"   Gusts: NA
Location:  48.026°N, 122.859°W
Report Text: KNUW 310856Z 09006KT 10SM -RA SCT010 BKN042 OVC060 12/11 A2977 RMK AO2 RAE15B39 SLP084 P0000 60005 T01220106 57003 $
Loading
Personal Weather Stations






























Interactive Weather Map
Tropical Storm Tracking
New forecast layout! Learn more

10-Day Weather Forecast

Advertisements
Track Severe Weather on mobile